sensor_id;sensor_type;location;lat;lon;timestamp;P1;durP1;ratioP1;P2;durP2;ratioP2
19002;SDS011;9634;51.040;13.794;2022-07-23T00:03:07;8.17;;;4.33;;
19002;SDS011;9634;51.040;13.794;2022-07-23T00:08:10;7.97;;;4.33;;
19002;SDS011;9634;51.040;13.794;2022-07-23T00:13:13;6.47;;;3.70;;
19002;SDS011;9634;51.040;13.794;2022-07-23T00:18:16;6.07;;;3.90;;
19002;SDS011;9634;51.040;13.794;2022-07-23T00:23:18;9.20;;;3.70;;
19002;SDS011;9634;51.040;13.794;2022-07-23T00:28:22;5.53;;;3.87;;
19002;SDS011;9634;51.040;13.794;2022-07-23T00:33:24;5.97;;;3.67;;
19002;SDS011;9634;51.040;13.794;2022-07-23T00:38:26;8.93;;;3.87;;
19002;SDS011;9634;51.040;13.794;2022-07-23T00:43:30;5.20;;;3.87;;
19002;SDS011;9634;51.040;13.794;2022-07-23T00:48:32;6.50;;;3.47;;
19002;SDS011;9634;51.040;13.794;2022-07-23T00:53:34;4.60;;;3.50;;
19002;SDS011;9634;51.040;13.794;2022-07-23T00:58:38;6.33;;;3.40;;
19002;SDS011;9634;51.040;13.794;2022-07-23T01:03:41;5.80;;;3.13;;
19002;SDS011;9634;51.040;13.794;2022-07-23T01:08:43;5.20;;;3.50;;
19002;SDS011;9634;51.040;13.794;2022-07-23T01:13:48;4.20;;;3.50;;
19002;SDS011;9634;51.040;13.794;2022-07-23T01:18:51;12.80;;;4.27;;
19002;SDS011;9634;51.040;13.794;2022-07-23T01:23:55;4.53;;;3.37;;
19002;SDS011;9634;51.040;13.794;2022-07-23T01:28:58;6.13;;;4.00;;
19002;SDS011;9634;51.040;13.794;2022-07-23T01:34:00;4.43;;;3.30;;
19002;SDS011;9634;51.040;13.794;2022-07-23T01:39:05;9.93;;;3.57;;
19002;SDS011;9634;51.040;13.794;2022-07-23T01:44:09;5.00;;;3.60;;
19002;SDS011;9634;51.040;13.794;2022-07-23T01:49:13;5.83;;;4.30;;
19002;SDS011;9634;51.040;13.794;2022-07-23T01:54:52;6.40;;;4.17;;
19002;SDS011;9634;51.040;13.794;2022-07-23T01:59:55;5.07;;;3.77;;
19002;SDS011;9634;51.040;13.794;2022-07-23T02:04:58;5.20;;;4.00;;
19002;SDS011;9634;51.040;13.794;2022-07-23T02:10:02;5.40;;;3.77;;
19002;SDS011;9634;51.040;13.794;2022-07-23T02:15:05;4.70;;;4.07;;
19002;SDS011;9634;51.040;13.794;2022-07-23T02:20:09;5.30;;;4.30;;
19002;SDS011;9634;51.040;13.794;2022-07-23T02:25:14;12.20;;;5.23;;
19002;SDS011;9634;51.040;13.794;2022-07-23T02:30:16;6.33;;;4.33;;
19002;SDS011;9634;51.040;13.794;2022-07-23T02:35:19;6.57;;;5.00;;
19002;SDS011;9634;51.040;13.794;2022-07-23T02:40:23;8.13;;;5.00;;
19002;SDS011;9634;51.040;13.794;2022-07-23T02:45:26;9.00;;;5.30;;
19002;SDS011;9634;51.040;13.794;2022-07-23T02:50:29;6.70;;;5.13;;
19002;SDS011;9634;51.040;13.794;2022-07-23T02:55:35;7.13;;;4.70;;
19002;SDS011;9634;51.040;13.794;2022-07-23T03:00:37;6.93;;;5.17;;
19002;SDS011;9634;51.040;13.794;2022-07-23T03:05:40;10.47;;;4.87;;
19002;SDS011;9634;51.040;13.794;2022-07-23T03:10:43;6.33;;;4.93;;
19002;SDS011;9634;51.040;13.794;2022-07-23T03:15:46;13.37;;;5.87;;
19002;SDS011;9634;51.040;13.794;2022-07-23T03:20:48;7.17;;;5.00;;
19002;SDS011;9634;51.040;13.794;2022-07-23T03:25:52;5.90;;;5.07;;
19002;SDS011;9634;51.040;13.794;2022-07-23T03:30:55;6.57;;;5.53;;
19002;SDS011;9634;51.040;13.794;2022-07-23T03:35:57;8.77;;;5.60;;
19002;SDS011;9634;51.040;13.794;2022-07-23T03:41:04;10.77;;;5.53;;
19002;SDS011;9634;51.040;13.794;2022-07-23T03:46:07;7.70;;;5.53;;
19002;SDS011;9634;51.040;13.794;2022-07-23T03:51:10;8.07;;;5.30;;
19002;SDS011;9634;51.040;13.794;2022-07-23T03:56:14;10.37;;;5.27;;
19002;SDS011;9634;51.040;13.794;2022-07-23T04:01:17;9.03;;;5.43;;
19002;SDS011;9634;51.040;13.794;2022-07-23T04:06:20;8.97;;;5.10;;
19002;SDS011;9634;51.040;13.794;2022-07-23T04:11:25;10.60;;;5.47;;
19002;SDS011;9634;51.040;13.794;2022-07-23T04:16:28;7.93;;;5.00;;
19002;SDS011;9634;51.040;13.794;2022-07-23T04:21:31;7.80;;;4.87;;
19002;SDS011;9634;51.040;13.794;2022-07-23T04:26:35;13.13;;;5.13;;
19002;SDS011;9634;51.040;13.794;2022-07-23T04:31:38;7.10;;;4.80;;
19002;SDS011;9634;51.040;13.794;2022-07-23T04:36:41;7.40;;;5.03;;
19002;SDS011;9634;51.040;13.794;2022-07-23T04:41:45;6.43;;;5.10;;
19002;SDS011;9634;51.040;13.794;2022-07-23T04:46:48;5.33;;;4.70;;
19002;SDS011;9634;51.040;13.794;2022-07-23T04:51:50;7.07;;;5.50;;
19002;SDS011;9634;51.040;13.794;2022-07-23T04:56:54;8.70;;;5.03;;
19002;SDS011;9634;51.040;13.794;2022-07-23T05:01:57;7.23;;;4.90;;
19002;SDS011;9634;51.040;13.794;2022-07-23T05:07:00;11.73;;;4.80;;
19002;SDS011;9634;51.040;13.794;2022-07-23T05:12:04;10.20;;;4.70;;
19002;SDS011;9634;51.040;13.794;2022-07-23T05:17:08;6.73;;;4.63;;
19002;SDS011;9634;51.040;13.794;2022-07-23T05:22:11;9.50;;;4.20;;
19002;SDS011;9634;51.040;13.794;2022-07-23T05:27:15;5.17;;;4.23;;
19002;SDS011;9634;51.040;13.794;2022-07-23T05:32:17;4.87;;;4.30;;
19002;SDS011;9634;51.040;13.794;2022-07-23T05:37:28;7.90;;;4.70;;
19002;SDS011;9634;51.040;13.794;2022-07-23T05:42:32;7.37;;;4.57;;
19002;SDS011;9634;51.040;13.794;2022-07-23T05:47:41;5.67;;;4.23;;
19002;SDS011;9634;51.040;13.794;2022-07-23T05:52:45;6.07;;;4.50;;
19002;SDS011;9634;51.040;13.794;2022-07-23T05:58:15;9.03;;;4.63;;
19002;SDS011;9634;51.040;13.794;2022-07-23T06:03:17;5.53;;;4.37;;
19002;SDS011;9634;51.040;13.794;2022-07-23T06:08:20;5.83;;;4.17;;
19002;SDS011;9634;51.040;13.794;2022-07-23T06:13:24;7.90;;;4.80;;
19002;SDS011;9634;51.040;13.794;2022-07-23T06:18:26;11.47;;;5.10;;
19002;SDS011;9634;51.040;13.794;2022-07-23T06:23:29;8.90;;;5.17;;
19002;SDS011;9634;51.040;13.794;2022-07-23T06:28:33;7.33;;;5.10;;
19002;SDS011;9634;51.040;13.794;2022-07-23T06:33:35;10.37;;;5.20;;
19002;SDS011;9634;51.040;13.794;2022-07-23T06:38:37;9.07;;;5.77;;
19002;SDS011;9634;51.040;13.794;2022-07-23T06:43:41;8.50;;;5.20;;
19002;SDS011;9634;51.040;13.794;2022-07-23T06:48:44;7.13;;;4.83;;
19002;SDS011;9634;51.040;13.794;2022-07-23T06:53:46;6.50;;;5.13;;
19002;SDS011;9634;51.040;13.794;2022-07-23T06:58:50;7.47;;;5.40;;
19002;SDS011;9634;51.040;13.794;2022-07-23T07:03:52;9.60;;;5.27;;
19002;SDS011;9634;51.040;13.794;2022-07-23T07:08:54;9.23;;;5.20;;
19002;SDS011;9634;51.040;13.794;2022-07-23T07:13:58;8.80;;;5.87;;
19002;SDS011;9634;51.040;13.794;2022-07-23T07:19:01;9.00;;;5.47;;
19002;SDS011;9634;51.040;13.794;2022-07-23T07:24:03;10.60;;;6.20;;
19002;SDS011;9634;51.040;13.794;2022-07-23T07:29:08;9.83;;;5.23;;
19002;SDS011;9634;51.040;13.794;2022-07-23T07:34:10;9.80;;;5.53;;
19002;SDS011;9634;51.040;13.794;2022-07-23T07:39:12;9.40;;;5.37;;
19002;SDS011;9634;51.040;13.794;2022-07-23T07:44:16;7.27;;;5.50;;
19002;SDS011;9634;51.040;13.794;2022-07-23T07:49:18;6.47;;;4.60;;
19002;SDS011;9634;51.040;13.794;2022-07-23T07:54:21;5.80;;;4.70;;
19002;SDS011;9634;51.040;13.794;2022-07-23T07:59:25;7.50;;;5.17;;
19002;SDS011;9634;51.040;13.794;2022-07-23T08:04:27;6.93;;;4.60;;
19002;SDS011;9634;51.040;13.794;2022-07-23T08:09:30;5.57;;;3.93;;
19002;SDS011;9634;51.040;13.794;2022-07-23T08:14:33;7.13;;;4.40;;
19002;SDS011;9634;51.040;13.794;2022-07-23T08:19:36;7.40;;;4.33;;
19002;SDS011;9634;51.040;13.794;2022-07-23T08:24:38;7.07;;;4.60;;
19002;SDS011;9634;51.040;13.794;2022-07-23T08:29:42;6.80;;;4.00;;
19002;SDS011;9634;51.040;13.794;2022-07-23T08:34:44;5.10;;;3.93;;
19002;SDS011;9634;51.040;13.794;2022-07-23T08:39:46;5.53;;;4.00;;
19002;SDS011;9634;51.040;13.794;2022-07-23T08:44:50;7.40;;;4.60;;
19002;SDS011;9634;51.040;13.794;2022-07-23T08:49:53;6.07;;;4.00;;
19002;SDS011;9634;51.040;13.794;2022-07-23T08:54:55;6.33;;;4.37;;
19002;SDS011;9634;51.040;13.794;2022-07-23T09:00:00;6.70;;;4.43;;
19002;SDS011;9634;51.040;13.794;2022-07-23T09:05:03;5.63;;;4.57;;
19002;SDS011;9634;51.040;13.794;2022-07-23T09:10:07;5.80;;;4.30;;
19002;SDS011;9634;51.040;13.794;2022-07-23T09:15:13;5.00;;;4.20;;
19002;SDS011;9634;51.040;13.794;2022-07-23T09:20:16;7.13;;;4.80;;
19002;SDS011;9634;51.040;13.794;2022-07-23T09:25:18;7.00;;;4.23;;
19002;SDS011;9634;51.040;13.794;2022-07-23T09:30:23;5.72;;;4.40;;
19002;SDS011;9634;51.040;13.794;2022-07-23T09:35:33;6.45;;;3.92;;
19002;SDS011;9634;51.040;13.794;2022-07-23T09:40:46;4.70;;;4.25;;
19002;SDS011;9634;51.040;13.794;2022-07-23T09:45:50;5.57;;;3.92;;
19002;SDS011;9634;51.040;13.794;2022-07-23T09:50:52;5.40;;;4.07;;
19002;SDS011;9634;51.040;13.794;2022-07-23T09:56:04;5.50;;;4.60;;
19002;SDS011;9634;51.040;13.794;2022-07-23T10:01:10;7.75;;;4.45;;
19002;SDS011;9634;51.040;13.794;2022-07-23T10:06:14;6.35;;;4.70;;
19002;SDS011;9634;51.040;13.794;2022-07-23T10:11:42;5.55;;;4.28;;
19002;SDS011;9634;51.040;13.794;2022-07-23T10:17:03;5.03;;;4.45;;
19002;SDS011;9634;51.040;13.794;2022-07-23T10:22:06;6.00;;;4.28;;
19002;SDS011;9634;51.040;13.794;2022-07-23T10:27:15;8.48;;;4.53;;
19002;SDS011;9634;51.040;13.794;2022-07-23T10:32:49;7.97;;;4.97;;
19002;SDS011;9634;51.040;13.794;2022-07-23T10:38:07;5.50;;;4.65;;
19002;SDS011;9634;51.040;13.794;2022-07-23T10:43:15;8.35;;;4.63;;
19002;SDS011;9634;51.040;13.794;2022-07-23T10:48:20;5.65;;;4.07;;
19002;SDS011;9634;51.040;13.794;2022-07-23T10:53:23;5.20;;;4.70;;
19002;SDS011;9634;51.040;13.794;2022-07-23T11:03:56;6.07;;;4.25;;
19002;SDS011;9634;51.040;13.794;2022-07-23T11:20:14;6.93;;;5.00;;
19002;SDS011;9634;51.040;13.794;2022-07-23T11:25:29;5.40;;;4.20;;
19002;SDS011;9634;51.040;13.794;2022-07-23T11:30:39;3.88;;;3.47;;
19002;SDS011;9634;51.040;13.794;2022-07-23T11:35:45;7.38;;;4.22;;
19002;SDS011;9634;51.040;13.794;2022-07-23T11:40:50;6.90;;;4.57;;
19002;SDS011;9634;51.040;13.794;2022-07-23T11:45:57;10.30;;;4.45;;
19002;SDS011;9634;51.040;13.794;2022-07-23T11:51:01;7.38;;;4.30;;
19002;SDS011;9634;51.040;13.794;2022-07-23T11:56:04;5.35;;;3.80;;
19002;SDS011;9634;51.040;13.794;2022-07-23T12:01:08;5.90;;;4.30;;
19002;SDS011;9634;51.040;13.794;2022-07-23T12:06:11;6.35;;;4.68;;
19002;SDS011;9634;51.040;13.794;2022-07-23T12:11:14;8.18;;;4.50;;
19002;SDS011;9634;51.040;13.794;2022-07-23T12:16:16;5.73;;;4.43;;
19002;SDS011;9634;51.040;13.794;2022-07-23T12:21:21;8.27;;;4.80;;
19002;SDS011;9634;51.040;13.794;2022-07-23T12:26:24;9.37;;;5.30;;
19002;SDS011;9634;51.040;13.794;2022-07-23T12:31:26;7.97;;;5.43;;
19002;SDS011;9634;51.040;13.794;2022-07-23T12:36:37;8.17;;;5.13;;
19002;SDS011;9634;51.040;13.794;2022-07-23T12:47:04;9.00;;;5.47;;
19002;SDS011;9634;51.040;13.794;2022-07-23T12:52:16;4.97;;;4.47;;
19002;SDS011;9634;51.040;13.794;2022-07-23T12:57:19;6.18;;;5.10;;
19002;SDS011;9634;51.040;13.794;2022-07-23T13:02:44;5.72;;;4.78;;
19002;SDS011;9634;51.040;13.794;2022-07-23T13:07:49;8.70;;;5.45;;
19002;SDS011;9634;51.040;13.794;2022-07-23T13:12:51;6.78;;;4.88;;
19002;SDS011;9634;51.040;13.794;2022-07-23T13:17:53;5.15;;;4.25;;
19002;SDS011;9634;51.040;13.794;2022-07-23T13:22:57;6.13;;;4.50;;
19002;SDS011;9634;51.040;13.794;2022-07-23T13:27:59;7.43;;;4.20;;
19002;SDS011;9634;51.040;13.794;2022-07-23T13:33:02;17.77;;;4.45;;
19002;SDS011;9634;51.040;13.794;2022-07-23T13:38:07;4.65;;;4.03;;
19002;SDS011;9634;51.040;13.794;2022-07-23T13:43:09;6.00;;;4.57;;
19002;SDS011;9634;51.040;13.794;2022-07-23T13:48:13;5.10;;;4.57;;
19002;SDS011;9634;51.040;13.794;2022-07-23T13:53:18;6.43;;;4.65;;
19002;SDS011;9634;51.040;13.794;2022-07-23T13:58:22;5.25;;;4.30;;
19002;SDS011;9634;51.040;13.794;2022-07-23T14:03:24;8.73;;;5.05;;
19002;SDS011;9634;51.040;13.794;2022-07-23T14:08:28;6.80;;;5.22;;
19002;SDS011;9634;51.040;13.794;2022-07-23T14:13:30;6.53;;;5.03;;
19002;SDS011;9634;51.040;13.794;2022-07-23T14:18:32;7.80;;;5.18;;
19002;SDS011;9634;51.040;13.794;2022-07-23T14:23:36;10.57;;;5.35;;
19002;SDS011;9634;51.040;13.794;2022-07-23T14:28:38;6.18;;;5.32;;
19002;SDS011;9634;51.040;13.794;2022-07-23T14:33:41;11.15;;;4.90;;
19002;SDS011;9634;51.040;13.794;2022-07-23T14:38:44;7.32;;;4.88;;
19002;SDS011;9634;51.040;13.794;2022-07-23T14:43:47;7.22;;;5.13;;
19002;SDS011;9634;51.040;13.794;2022-07-23T14:48:49;7.05;;;4.97;;
19002;SDS011;9634;51.040;13.794;2022-07-23T14:53:53;6.78;;;4.57;;
19002;SDS011;9634;51.040;13.794;2022-07-23T14:58:55;5.18;;;4.35;;
19002;SDS011;9634;51.040;13.794;2022-07-23T15:03:57;4.72;;;4.20;;
19002;SDS011;9634;51.040;13.794;2022-07-23T15:09:02;4.93;;;4.43;;
19002;SDS011;9634;51.040;13.794;2022-07-23T15:14:04;6.32;;;4.43;;
19002;SDS011;9634;51.040;13.794;2022-07-23T15:19:06;8.93;;;5.18;;
19002;SDS011;9634;51.040;13.794;2022-07-23T15:24:10;6.30;;;5.15;;
19002;SDS011;9634;51.040;13.794;2022-07-23T15:29:13;6.70;;;5.50;;
19002;SDS011;9634;51.040;13.794;2022-07-23T15:34:15;5.05;;;4.35;;
19002;SDS011;9634;51.040;13.794;2022-07-23T15:39:19;6.97;;;5.65;;
19002;SDS011;9634;51.040;13.794;2022-07-23T15:44:21;9.27;;;6.03;;
19002;SDS011;9634;51.040;13.794;2022-07-23T15:49:24;6.93;;;6.10;;
19002;SDS011;9634;51.040;13.794;2022-07-23T15:54:27;11.13;;;7.10;;
19002;SDS011;9634;51.040;13.794;2022-07-23T15:59:30;10.60;;;7.87;;
19002;SDS011;9634;51.040;13.794;2022-07-23T16:04:32;9.67;;;6.67;;
19002;SDS011;9634;51.040;13.794;2022-07-23T16:09:36;9.55;;;7.07;;
19002;SDS011;9634;51.040;13.794;2022-07-23T16:14:39;10.68;;;7.07;;
19002;SDS011;9634;51.040;13.794;2022-07-23T16:19:41;10.18;;;7.00;;
19002;SDS011;9634;51.040;13.794;2022-07-23T16:24:44;8.15;;;7.22;;
19002;SDS011;9634;51.040;13.794;2022-07-23T16:29:47;9.90;;;7.80;;
19002;SDS011;9634;51.040;13.794;2022-07-23T16:34:49;7.57;;;6.75;;
19002;SDS011;9634;51.040;13.794;2022-07-23T16:39:53;8.95;;;6.18;;
19002;SDS011;9634;51.040;13.794;2022-07-23T16:44:55;10.38;;;6.72;;
19002;SDS011;9634;51.040;13.794;2022-07-23T16:49:57;9.10;;;6.53;;
19002;SDS011;9634;51.040;13.794;2022-07-23T16:55:01;9.75;;;7.57;;
19002;SDS011;9634;51.040;13.794;2022-07-23T17:00:05;11.73;;;8.63;;
19002;SDS011;9634;51.040;13.794;2022-07-23T17:05:09;10.35;;;8.15;;
19002;SDS011;9634;51.040;13.794;2022-07-23T17:10:13;8.85;;;7.60;;
19002;SDS011;9634;51.040;13.794;2022-07-23T17:15:15;11.98;;;7.80;;
19002;SDS011;9634;51.040;13.794;2022-07-23T17:20:18;9.32;;;7.50;;
19002;SDS011;9634;51.040;13.794;2022-07-23T17:25:21;10.50;;;7.53;;
19002;SDS011;9634;51.040;13.794;2022-07-23T17:30:24;11.65;;;7.63;;
19002;SDS011;9634;51.040;13.794;2022-07-23T17:35:26;8.65;;;7.32;;
19002;SDS011;9634;51.040;13.794;2022-07-23T17:40:30;8.32;;;6.47;;
19002;SDS011;9634;51.040;13.794;2022-07-23T17:45:33;10.15;;;6.13;;
19002;SDS011;9634;51.040;13.794;2022-07-23T17:50:35;7.38;;;5.93;;
19002;SDS011;9634;51.040;13.794;2022-07-23T17:55:39;7.85;;;5.82;;
19002;SDS011;9634;51.040;13.794;2022-07-23T18:00:41;10.10;;;6.07;;
19002;SDS011;9634;51.040;13.794;2022-07-23T18:05:43;8.38;;;6.55;;
19002;SDS011;9634;51.040;13.794;2022-07-23T18:10:47;11.88;;;6.80;;
19002;SDS011;9634;51.040;13.794;2022-07-23T18:15:50;8.18;;;5.63;;
19002;SDS011;9634;51.040;13.794;2022-07-23T18:20:52;8.43;;;5.90;;
19002;SDS011;9634;51.040;13.794;2022-07-23T18:25:56;8.40;;;6.27;;
19002;SDS011;9634;51.040;13.794;2022-07-23T18:30:58;15.63;;;7.10;;
19002;SDS011;9634;51.040;13.794;2022-07-23T18:36:01;10.17;;;7.10;;
19002;SDS011;9634;51.040;13.794;2022-07-23T18:41:04;7.27;;;5.57;;
19002;SDS011;9634;51.040;13.794;2022-07-23T18:46:07;8.33;;;7.00;;
19002;SDS011;9634;51.040;13.794;2022-07-23T18:51:09;10.50;;;6.60;;
19002;SDS011;9634;51.040;13.794;2022-07-23T18:56:13;11.67;;;7.37;;
19002;SDS011;9634;51.040;13.794;2022-07-23T19:01:15;9.93;;;8.37;;
19002;SDS011;9634;51.040;13.794;2022-07-23T19:06:18;8.80;;;7.00;;
19002;SDS011;9634;51.040;13.794;2022-07-23T19:11:22;10.60;;;7.57;;
19002;SDS011;9634;51.040;13.794;2022-07-23T19:16:25;9.57;;;7.47;;
19002;SDS011;9634;51.040;13.794;2022-07-23T19:21:27;11.17;;;7.87;;
19002;SDS011;9634;51.040;13.794;2022-07-23T19:26:31;10.07;;;7.77;;
19002;SDS011;9634;51.040;13.794;2022-07-23T19:31:33;9.60;;;8.18;;
19002;SDS011;9634;51.040;13.794;2022-07-23T19:36:35;9.23;;;7.57;;
19002;SDS011;9634;51.040;13.794;2022-07-23T19:41:39;11.83;;;8.40;;
19002;SDS011;9634;51.040;13.794;2022-07-23T19:46:42;12.13;;;7.33;;
19002;SDS011;9634;51.040;13.794;2022-07-23T19:51:44;11.20;;;7.57;;
19002;SDS011;9634;51.040;13.794;2022-07-23T19:56:48;11.87;;;7.53;;
19002;SDS011;9634;51.040;13.794;2022-07-23T20:01:50;10.83;;;8.00;;
19002;SDS011;9634;51.040;13.794;2022-07-23T20:06:53;10.97;;;7.37;;
19002;SDS011;9634;51.040;13.794;2022-07-23T20:11:57;13.43;;;8.57;;
19002;SDS011;9634;51.040;13.794;2022-07-23T20:16:59;11.60;;;8.87;;
19002;SDS011;9634;51.040;13.794;2022-07-23T20:22:01;11.77;;;9.07;;
19002;SDS011;9634;51.040;13.794;2022-07-23T20:27:05;12.87;;;8.40;;
19002;SDS011;9634;51.040;13.794;2022-07-23T20:32:08;12.97;;;8.80;;
19002;SDS011;9634;51.040;13.794;2022-07-23T20:37:10;11.80;;;9.03;;
19002;SDS011;9634;51.040;13.794;2022-07-23T20:42:14;18.00;;;12.00;;
19002;SDS011;9634;51.040;13.794;2022-07-23T20:47:16;17.40;;;11.60;;
19002;SDS011;9634;51.040;13.794;2022-07-23T20:52:19;16.73;;;12.40;;
19002;SDS011;9634;51.040;13.794;2022-07-23T20:57:22;16.47;;;11.50;;
19002;SDS011;9634;51.040;13.794;2022-07-23T21:02:25;17.10;;;11.17;;
19002;SDS011;9634;51.040;13.794;2022-07-23T21:07:27;15.40;;;10.97;;
19002;SDS011;9634;51.040;13.794;2022-07-23T21:12:31;15.13;;;11.20;;
19002;SDS011;9634;51.040;13.794;2022-07-23T21:17:33;20.37;;;11.57;;
19002;SDS011;9634;51.040;13.794;2022-07-23T21:22:36;14.67;;;10.97;;
19002;SDS011;9634;51.040;13.794;2022-07-23T21:27:40;15.67;;;11.70;;
19002;SDS011;9634;51.040;13.794;2022-07-23T21:32:44;18.20;;;13.20;;
19002;SDS011;9634;51.040;13.794;2022-07-23T21:37:46;21.00;;;11.50;;
19002;SDS011;9634;51.040;13.794;2022-07-23T21:42:50;22.97;;;12.17;;
19002;SDS011;9634;51.040;13.794;2022-07-23T21:47:52;19.03;;;12.63;;
19002;SDS011;9634;51.040;13.794;2022-07-23T21:52:55;17.80;;;12.47;;
19002;SDS011;9634;51.040;13.794;2022-07-23T21:57:58;20.07;;;13.23;;
19002;SDS011;9634;51.040;13.794;2022-07-23T22:03:01;22.10;;;13.70;;
19002;SDS011;9634;51.040;13.794;2022-07-23T22:08:04;27.13;;;17.87;;
19002;SDS011;9634;51.040;13.794;2022-07-23T22:13:08;21.13;;;14.03;;
19002;SDS011;9634;51.040;13.794;2022-07-23T22:18:10;21.40;;;15.13;;
19002;SDS011;9634;51.040;13.794;2022-07-23T22:23:13;22.23;;;14.43;;
19002;SDS011;9634;51.040;13.794;2022-07-23T22:28:16;19.93;;;13.73;;
19002;SDS011;9634;51.040;13.794;2022-07-23T22:33:19;17.70;;;14.67;;
19002;SDS011;9634;51.040;13.794;2022-07-23T22:38:21;21.97;;;14.13;;
19002;SDS011;9634;51.040;13.794;2022-07-23T22:43:24;26.23;;;17.40;;
19002;SDS011;9634;51.040;13.794;2022-07-23T22:48:27;19.00;;;13.80;;
19002;SDS011;9634;51.040;13.794;2022-07-23T22:53:29;19.93;;;15.27;;
19002;SDS011;9634;51.040;13.794;2022-07-23T22:58:33;19.07;;;13.37;;
19002;SDS011;9634;51.040;13.794;2022-07-23T23:03:35;19.80;;;14.27;;
19002;SDS011;9634;51.040;13.794;2022-07-23T23:08:37;19.13;;;15.23;;
19002;SDS011;9634;51.040;13.794;2022-07-23T23:13:41;17.93;;;13.77;;
19002;SDS011;9634;51.040;13.794;2022-07-23T23:18:43;19.63;;;14.73;;
19002;SDS011;9634;51.040;13.794;2022-07-23T23:23:46;19.23;;;15.17;;
19002;SDS011;9634;51.040;13.794;2022-07-23T23:28:49;22.10;;;15.03;;
19002;SDS011;9634;51.040;13.794;2022-07-23T23:33:52;22.97;;;15.40;;
19002;SDS011;9634;51.040;13.794;2022-07-23T23:38:54;21.43;;;15.33;;
19002;SDS011;9634;51.040;13.794;2022-07-23T23:43:58;20.60;;;15.03;;
19002;SDS011;9634;51.040;13.794;2022-07-23T23:49:01;24.27;;;15.17;;
19002;SDS011;9634;51.040;13.794;2022-07-23T23:54:03;20.30;;;15.83;;
19002;SDS011;9634;51.040;13.794;2022-07-23T23:59:07;22.83;;;16.50;;
